Terminal Aerodrome Forecast
Issued by NWS Charleston, WV

Current Version | Previous Version | Graphics & Text | Print | Product List | Glossary On
Versions: 1 2 3 4 5 6 7 8 9 10 11 12 13 14 15 16 17 18 19 20 21 22 23 24 25 26 27 28
000
FTUS41 KRLX 180500
TAFHTS
TAF
KHTS 180521Z 1806/1906 00000KT P6SM OVC035
     FM180900 16004KT 5SM +SHRA BR OVC030
     FM181400 19005KT 2SM +SHRA BR OVC012
     FM181600 23004KT 3SM +SHRA BR VCTS BKN012CB
     FM181900 25004KT 6SM +SHRA BR VCTS BKN020CB
     FM182000 26004KT 6SM BR VCTS BKN025CB=

USA.gov is the U.S. government's official web portal to all federal, state and local government web resources and services.